WZZ2WT LZIB-EPWA
Flight info
| Callsign | WZZ2WT |
|---|---|
| Flight time | 0h 48m |
| Altitude | 35000 |
| Route | NIT M985 NIDOK DCT MEBAN DCT ORTEB DCT KONZI DCT LOGDA |
| Aircraft | A321/M-SDE1E2E3FGIJ1J4RWXY/LB1 |
Departure
| Time | 2026-05-04 16:51 |
|---|---|
| Airport | M. R. Štefánik Airport (LZIB) |
Arrival
| Time | 2026-05-04 17:40 |
|---|---|
| Airport | Warsaw Chopin Airport (EPWA) |
| Time | Latitude | Longitude | Altitude | Speed | Heading |
|---|---|---|---|---|---|
| 2026-05-04 16:09 | 48.16944 | 17.20133 | 432 ft | 0 kts | 314° |
| 2026-05-04 16:41 | 48.16927 | 17.20158 | 418 ft | 4 kts | 315° |
| 2026-05-04 16:41 | 48.16873 | 17.20147 | 419 ft | 1 kts | 44° |
| 2026-05-04 16:42 | 48.16872 | 17.20147 | 419 ft | 0 kts | 44° |
| 2026-05-04 16:47 | 48.16873 | 17.20148 | 419 ft | 1 kts | 44° |
| 2026-05-04 16:48 | 48.16987 | 17.20313 | 422 ft | 15 kts | 44° |
| 2026-05-04 16:48 | 48.17060 | 17.20419 | 420 ft | 14 kts | 44° |
| 2026-05-04 16:49 | 48.17214 | 17.20562 | 420 ft | 13 kts | 337° |
| 2026-05-04 16:49 | 48.17355 | 17.20363 | 424 ft | 15 kts | 317° |
| 2026-05-04 16:50 | 48.17515 | 17.20354 | 417 ft | 14 kts | 41° |
| 2026-05-04 16:50 | 48.17523 | 17.20470 | 422 ft | 1 kts | 131° |
| 2026-05-04 16:51 | 48.17133 | 17.21076 | 423 ft | 107 kts | 134° |
| 2026-05-04 16:51 | 48.16475 | 17.22099 | 477 ft | 158 kts | 134° |
| 2026-05-04 16:51 | 48.15025 | 17.24353 | 1926 ft | 151 kts | 139° |
| 2026-05-04 16:52 | 48.13555 | 17.26606 | 3092 ft | 152 kts | 139° |
| 2026-05-04 16:52 | 48.12817 | 17.27750 | 3660 ft | 154 kts | 139° |
| 2026-05-04 16:53 | 48.11755 | 17.30929 | 4217 ft | 212 kts | 85° |
| 2026-05-04 16:53 | 48.13569 | 17.38265 | 5100 ft | 280 kts | 71° |
| 2026-05-04 16:54 | 48.14317 | 17.40986 | 5827 ft | 286 kts | 70° |
| 2026-05-04 16:55 | 48.19453 | 17.50515 | 8705 ft | 304 kts | 47° |
| 2026-05-04 16:55 | 48.21857 | 17.54420 | 9962 ft | 309 kts | 47° |
| 2026-05-04 16:56 | 48.24932 | 17.59439 | 10534 ft | 349 kts | 47° |
| 2026-05-04 16:56 | 48.30025 | 17.67792 | 12330 ft | 368 kts | 48° |
| 2026-05-04 16:57 | 48.31761 | 17.70640 | 13018 ft | 371 kts | 48° |
| 2026-05-04 16:57 | 48.35267 | 17.76418 | 14328 ft | 378 kts | 48° |
| 2026-05-04 16:58 | 48.40648 | 17.85301 | 16189 ft | 388 kts | 48° |
| 2026-05-04 16:58 | 48.42472 | 17.88313 | 16834 ft | 391 kts | 47° |
| 2026-05-04 16:59 | 48.46161 | 17.94415 | 18040 ft | 397 kts | 47° |
| 2026-05-04 17:00 | 48.53693 | 18.06947 | 20229 ft | 409 kts | 47° |
| 2026-05-04 17:00 | 48.59464 | 18.16593 | 21914 ft | 417 kts | 47° |
| 2026-05-04 17:01 | 48.63372 | 18.23131 | 22979 ft | 422 kts | 47° |
| 2026-05-04 17:01 | 48.67322 | 18.29766 | 23926 ft | 427 kts | 46° |
| 2026-05-04 17:02 | 48.71310 | 18.36479 | 24776 ft | 431 kts | 46° |
| 2026-05-04 17:02 | 48.75311 | 18.43231 | 25559 ft | 436 kts | 46° |
| 2026-05-04 17:03 | 48.77340 | 18.46657 | 25977 ft | 438 kts | 46° |
| 2026-05-04 17:03 | 48.79402 | 18.50149 | 26350 ft | 440 kts | 46° |
| 2026-05-04 17:03 | 48.83502 | 18.57114 | 27138 ft | 444 kts | 46° |
| 2026-05-04 17:04 | 48.87629 | 18.64146 | 27882 ft | 449 kts | 46° |
| 2026-05-04 17:04 | 48.91772 | 18.71208 | 28630 ft | 453 kts | 46° |
| 2026-05-04 17:05 | 48.95999 | 18.78435 | 29402 ft | 455 kts | 46° |
| 2026-05-04 17:05 | 49.00215 | 18.85671 | 30150 ft | 458 kts | 46° |
| 2026-05-04 17:06 | 49.04425 | 18.92926 | 30750 ft | 462 kts | 46° |
| 2026-05-04 17:06 | 49.06557 | 18.96599 | 31042 ft | 464 kts | 47° |
| 2026-05-04 17:07 | 49.11361 | 19.02969 | 31791 ft | 456 kts | 25° |
| 2026-05-04 17:07 | 49.13292 | 19.04384 | 32047 ft | 455 kts | 23° |
| 2026-05-04 17:07 | 49.17092 | 19.07095 | 32556 ft | 455 kts | 23° |
| 2026-05-04 17:07 | 49.19955 | 19.09131 | 32934 ft | 454 kts | 23° |
| 2026-05-04 17:08 | 49.22819 | 19.11163 | 33326 ft | 453 kts | 23° |
| 2026-05-04 17:08 | 49.28527 | 19.15220 | 34090 ft | 452 kts | 22° |
| 2026-05-04 17:08 | 49.31380 | 19.17257 | 34366 ft | 452 kts | 23° |
| 2026-05-04 17:09 | 49.34230 | 19.19303 | 34683 ft | 452 kts | 22° |
| 2026-05-04 17:09 | 49.37077 | 19.21355 | 34963 ft | 453 kts | 22° |
| 2026-05-04 17:09 | 49.39923 | 19.23403 | 35032 ft | 449 kts | 23° |
| 2026-05-04 17:10 | 49.53933 | 19.33518 | 35026 ft | 444 kts | 22° |
| 2026-05-04 17:11 | 49.59515 | 19.37604 | 35025 ft | 444 kts | 23° |
| 2026-05-04 17:12 | 49.67857 | 19.43853 | 35032 ft | 444 kts | 24° |
| 2026-05-04 17:13 | 49.81775 | 19.54290 | 35027 ft | 445 kts | 23° |
| 2026-05-04 17:14 | 49.92913 | 19.62682 | 35026 ft | 445 kts | 24° |
| 2026-05-04 17:15 | 50.01261 | 19.69000 | 34993 ft | 445 kts | 24° |
| 2026-05-04 17:16 | 50.12373 | 19.77446 | 35005 ft | 444 kts | 24° |
| 2026-05-04 17:17 | 50.23486 | 19.85936 | 34996 ft | 445 kts | 24° |
| 2026-05-04 17:18 | 50.34604 | 19.94476 | 34998 ft | 445 kts | 24° |
| 2026-05-04 17:18 | 50.40136 | 19.98738 | 34817 ft | 449 kts | 24° |
| 2026-05-04 17:19 | 50.45770 | 20.03099 | 33632 ft | 450 kts | 24° |
| 2026-05-04 17:19 | 50.51373 | 20.07446 | 32636 ft | 442 kts | 24° |
| 2026-05-04 17:20 | 50.56814 | 20.11680 | 31640 ft | 436 kts | 24° |
| 2026-05-04 17:20 | 50.62211 | 20.15884 | 30655 ft | 429 kts | 24° |
| 2026-05-04 17:20 | 50.64879 | 20.17969 | 30169 ft | 427 kts | 24° |
| 2026-05-04 17:21 | 50.70147 | 20.22096 | 29198 ft | 418 kts | 24° |
| 2026-05-04 17:21 | 50.75282 | 20.26182 | 28325 ft | 409 kts | 24° |
| 2026-05-04 17:22 | 50.77805 | 20.28215 | 27867 ft | 405 kts | 24° |
| 2026-05-04 17:22 | 50.80301 | 20.30234 | 27452 ft | 402 kts | 25° |
| 2026-05-04 17:23 | 50.87697 | 20.36207 | 26231 ft | 394 kts | 24° |
| 2026-05-04 17:23 | 50.90131 | 20.38165 | 25829 ft | 391 kts | 24° |
| 2026-05-04 17:23 | 50.94950 | 20.42054 | 25040 ft | 386 kts | 25° |
| 2026-05-04 17:24 | 50.97335 | 20.43987 | 24641 ft | 384 kts | 25° |
| 2026-05-04 17:24 | 51.04412 | 20.49728 | 23405 ft | 378 kts | 25° |
| 2026-05-04 17:25 | 51.06743 | 20.51625 | 22968 ft | 375 kts | 25° |
| 2026-05-04 17:25 | 51.11338 | 20.55376 | 22138 ft | 368 kts | 25° |
| 2026-05-04 17:26 | 51.15855 | 20.59063 | 21305 ft | 362 kts | 25° |
| 2026-05-04 17:26 | 51.22512 | 20.64510 | 20072 ft | 355 kts | 25° |
| 2026-05-04 17:27 | 51.26886 | 20.68101 | 19238 ft | 352 kts | 25° |
| 2026-05-04 17:27 | 51.31411 | 20.70963 | 18500 ft | 356 kts | 15° |
| 2026-05-04 17:28 | 51.36155 | 20.73482 | 17737 ft | 360 kts | 15° |
| 2026-05-04 17:29 | 51.43254 | 20.77527 | 16056 ft | 360 kts | 19° |
| 2026-05-04 17:29 | 51.50025 | 20.82130 | 14053 ft | 349 kts | 20° |
| 2026-05-04 17:30 | 51.56673 | 20.86606 | 12719 ft | 343 kts | 19° |
| 2026-05-04 17:31 | 51.61047 | 20.89499 | 11885 ft | 338 kts | 19° |
| 2026-05-04 17:31 | 51.67510 | 20.93793 | 10644 ft | 332 kts | 19° |
| 2026-05-04 17:32 | 51.71740 | 20.96297 | 9841 ft | 313 kts | 13° |
| 2026-05-04 17:33 | 51.77889 | 20.99133 | 7585 ft | 301 kts | 13° |
| 2026-05-04 17:33 | 51.79901 | 21.00046 | 7245 ft | 299 kts | 13° |
| 2026-05-04 17:34 | 51.85851 | 21.02784 | 6183 ft | 295 kts | 13° |
| 2026-05-04 17:34 | 51.87821 | 21.03699 | 5803 ft | 294 kts | 13° |
| 2026-05-04 17:35 | 51.93695 | 21.06442 | 4397 ft | 295 kts | 13° |
| 2026-05-04 17:35 | 51.97366 | 21.08171 | 3924 ft | 251 kts | 13° |
| 2026-05-04 17:35 | 51.98968 | 21.08926 | 3724 ft | 231 kts | 13° |
| 2026-05-04 17:36 | 52.00496 | 21.09497 | 3500 ft | 219 kts | 1° |
| 2026-05-04 17:36 | 52.01939 | 21.09275 | 3269 ft | 201 kts | 340° |
| 2026-05-04 17:36 | 52.03164 | 21.08389 | 3027 ft | 187 kts | 328° |
| 2026-05-04 17:36 | 52.04290 | 21.07413 | 2781 ft | 179 kts | 328° |
| 2026-05-04 17:37 | 52.05386 | 21.06461 | 2552 ft | 179 kts | 328° |
| 2026-05-04 17:37 | 52.06485 | 21.05506 | 2319 ft | 178 kts | 328° |
| 2026-05-04 17:37 | 52.07568 | 21.04565 | 2089 ft | 174 kts | 327° |
| 2026-05-04 17:37 | 52.08613 | 21.03656 | 1861 ft | 167 kts | 327° |
| 2026-05-04 17:38 | 52.09617 | 21.02783 | 1663 ft | 162 kts | 327° |
| 2026-05-04 17:38 | 52.10575 | 21.01956 | 1473 ft | 152 kts | 327° |
| 2026-05-04 17:38 | 52.11478 | 21.01168 | 1250 ft | 147 kts | 328° |
| 2026-05-04 17:38 | 52.12381 | 21.00383 | 1038 ft | 148 kts | 327° |
| 2026-05-04 17:39 | 52.14200 | 20.98795 | 630 ft | 149 kts | 329° |
| 2026-05-04 17:39 | 52.15110 | 20.98005 | 462 ft | 148 kts | 329° |
| 2026-05-04 17:39 | 52.15998 | 20.97219 | 344 ft | 134 kts | 330° |
| 2026-05-04 17:40 | 52.16673 | 20.96625 | 340 ft | 86 kts | 332° |
| 2026-05-04 17:40 | 52.17054 | 20.96298 | 335 ft | 40 kts | 338° |
| 2026-05-04 17:40 | 52.17273 | 20.96242 | 333 ft | 28 kts | 1° |
| 2026-05-04 17:40 | 52.17394 | 20.96290 | 335 ft | 7 kts | 51° |
| 2026-05-04 17:41 | 52.17395 | 20.96292 | 333 ft | 0 kts | 51° |
| 2026-05-04 17:42 | 52.17401 | 20.96300 | 333 ft | 3 kts | 45° |
| 2026-05-04 17:42 | 52.17420 | 20.96322 | 336 ft | 7 kts | 27° |
| 2026-05-04 17:42 | 52.17491 | 20.96309 | 338 ft | 14 kts | 335° |
| 2026-05-04 17:43 | 52.17595 | 20.96217 | 336 ft | 20 kts | 332° |
| 2026-05-04 17:43 | 52.17689 | 20.96136 | 334 ft | 14 kts | 332° |
| 2026-05-04 17:43 | 52.17781 | 20.96091 | 339 ft | 12 kts | 24° |
| 2026-05-04 17:43 | 52.17793 | 20.96111 | 339 ft | 0 kts | 47° |
| 2026-05-04 17:44 | 52.17795 | 20.96115 | 334 ft | 2 kts | 52° |
| 2026-05-04 17:44 | 52.17821 | 20.96134 | 336 ft | 6 kts | 349° |
| 2026-05-04 17:44 | 52.17862 | 20.96103 | 336 ft | 2 kts | 332° |
| 2026-05-04 17:44 | 52.17871 | 20.96096 | 336 ft | 0 kts | 332° |